Time;durP1;ratioP1;P1;durP2;ratioP2;P2;SDS_P1;SDS_P2;PMS_P1;PMS_P2;Temp;Humidity;BMP_temperature;BMP_pressure;BME280_temperature;BME280_humidity;BME280_pressure;Samples;Min_cycle;Max_cycle;Signal;HPM_P1;HPM_P2
2021/04/30 00:00:53;;;;;;;15.80;7.35;;;6.10;99.90;;;;;;5032476;28;20036;-60
2021/04/30 00:03:20;;;;;;;12.57;7.07;;;6.00;99.90;;;;;;5032494;28;20033;-59
2021/04/30 00:05:46;;;;;;;14.32;7.60;;;6.10;99.90;;;;;;5032508;28;20033;-59
2021/04/30 00:08:12;;;;;;;16.92;7.72;;;6.10;99.90;;;;;;5032385;28;20108;-60
2021/04/30 00:10:39;;;;;;;13.95;7.43;;;6.00;99.90;;;;;;5032214;28;20067;-60
2021/04/30 00:13:04;;;;;;;11.52;7.20;;;6.10;99.90;;;;;;5032456;28;20577;-60
2021/04/30 00:15:30;;;;;;;13.40;8.25;;;6.00;99.90;;;;;;5032102;28;20101;-60
2021/04/30 00:17:56;;;;;;;14.60;7.80;;;6.00;99.90;;;;;;5031471;28;20256;-59
2021/04/30 00:20:21;;;;;;;13.45;7.38;;;6.00;99.90;;;;;;5032348;28;20022;-59
2021/04/30 00:22:53;;;;;;;13.57;7.82;;;6.00;99.90;;;;;;5031622;28;20025;-59
2021/04/30 00:25:19;;;;;;;14.88;7.93;;;5.90;99.90;;;;;;5032652;28;20032;-59
2021/04/30 00:27:44;;;;;;;14.52;7.55;;;5.90;99.90;;;;;;5031353;28;20456;-59
2021/04/30 00:30:13;;;;;;;15.73;8.13;;;5.80;99.90;;;;;;5031967;28;20033;-59
2021/04/30 00:32:38;;;;;;;13.30;8.27;;;5.80;99.90;;;;;;5032406;28;20034;-59
2021/04/30 00:35:04;;;;;;;15.18;8.25;;;5.80;99.90;;;;;;5032216;28;20120;-59
2021/04/30 00:37:30;;;;;;;18.50;8.05;;;5.70;99.90;;;;;;5031214;28;20394;-59
2021/04/30 00:39:55;;;;;;;16.83;8.90;;;5.70;99.90;;;;;;5032634;28;20057;-59
2021/04/30 00:42:21;;;;;;;15.20;8.93;;;5.70;99.90;;;;;;5032786;28;20025;-59
2021/04/30 00:44:47;;;;;;;14.27;8.02;;;5.60;99.90;;;;;;5030743;28;20022;-60
2021/04/30 00:47:29;;;;;;;16.77;8.57;;;5.60;99.90;;;;;;5032709;28;20017;-60
2021/04/30 00:49:55;;;;;;;14.57;8.43;;;5.60;99.90;;;;;;5031771;28;20497;-59
2021/04/30 00:52:21;;;;;;;14.75;8.60;;;5.60;99.90;;;;;;5032342;28;20025;-59
2021/04/30 00:54:47;;;;;;;17.98;8.93;;;5.60;99.90;;;;;;5032163;28;20022;-59
2021/04/30 00:57:14;;;;;;;13.82;8.80;;;5.60;99.90;;;;;;5031159;28;20171;-60
2021/04/30 00:59:40;;;;;;;18.10;9.25;;;5.60;99.90;;;;;;5030308;28;20049;-59
2021/04/30 01:02:06;;;;;;;16.85;8.90;;;5.70;99.90;;;;;;5031809;28;20021;-59
2021/04/30 01:04:31;;;;;;;12.23;9.05;;;5.70;99.90;;;;;;5032080;28;20034;-59
2021/04/30 01:06:57;;;;;;;11.73;8.52;;;5.60;99.90;;;;;;5032628;28;20041;-59
2021/04/30 01:09:23;;;;;;;14.65;9.50;;;5.50;99.90;;;;;;5032747;28;20025;-59
2021/04/30 01:11:50;;;;;;;14.73;9.40;;;5.60;99.90;;;;;;5032252;28;20075;-59
2021/04/30 01:14:17;;;;;;;14.57;10.00;;;5.50;99.90;;;;;;5032531;28;20482;-59
2021/04/30 01:16:43;;;;;;;17.17;10.65;;;5.50;99.90;;;;;;5036442;28;20017;-58
2021/04/30 01:19:09;;;;;;;16.77;10.52;;;5.40;99.90;;;;;;5036183;28;20026;-59
2021/04/30 01:21:35;;;;;;;16.40;9.88;;;5.50;99.90;;;;;;5035936;28;20071;-59
2021/04/30 01:24:00;;;;;;;14.43;10.93;;;5.50;99.90;;;;;;5034879;28;20026;-59
2021/04/30 01:26:26;;;;;;;18.15;11.73;;;5.40;99.90;;;;;;5035677;28;20028;-59
2021/04/30 01:28:52;;;;;;;16.13;11.00;;;5.40;99.90;;;;;;5035798;28;20037;-59
2021/04/30 01:31:18;;;;;;;21.33;12.45;;;5.40;99.90;;;;;;5035837;28;20032;-59
2021/04/30 01:33:52;;;;;;;19.05;11.77;;;5.40;99.90;;;;;;5035214;28;20095;-60
2021/04/30 01:36:18;;;;;;;20.08;12.43;;;5.40;99.90;;;;;;5034168;28;20068;-59
2021/04/30 01:38:44;;;;;;;18.45;11.35;;;5.40;99.90;;;;;;5035098;28;20030;-59
2021/04/30 01:41:09;;;;;;;20.27;12.60;;;5.40;99.90;;;;;;5034665;28;20021;-59
2021/04/30 01:43:35;;;;;;;20.58;13.35;;;5.40;99.90;;;;;;5035130;28;20060;-59
2021/04/30 01:46:04;;;;;;;24.38;12.80;;;5.40;99.90;;;;;;5034815;28;20398;-59
2021/04/30 01:48:33;;;;;;;20.17;13.63;;;5.40;99.90;;;;;;5035365;28;20029;-59
2021/04/30 01:51:01;;;;;;;19.65;12.98;;;5.40;99.90;;;;;;5035096;28;20483;-59
2021/04/30 01:53:31;;;;;;;18.30;12.63;;;5.30;99.90;;;;;;5034909;28;20029;-60
2021/04/30 01:55:58;;;;;;;19.42;14.15;;;5.40;99.90;;;;;;5035151;28;20104;-59
2021/04/30 01:58:24;;;;;;;24.88;14.25;;;5.40;99.90;;;;;;5035116;28;20445;-59
2021/04/30 02:00:52;;;;;;;21.00;14.73;;;5.30;99.90;;;;;;5034359;28;20032;-59
2021/04/30 02:03:17;;;;;;;27.98;14.13;;;5.30;99.90;;;;;;5034619;28;20108;-60
2021/04/30 02:05:43;;;;;;;30.88;14.48;;;5.30;99.90;;;;;;5035362;28;20052;-59
2021/04/30 02:08:11;;;;;;;21.77;13.55;;;5.30;99.90;;;;;;5035266;28;20034;-59
2021/04/30 02:10:37;;;;;;;19.83;14.50;;;5.20;99.90;;;;;;5035944;28;20057;-59
2021/04/30 02:13:04;;;;;;;23.27;14.52;;;5.20;99.90;;;;;;5035822;28;20032;-59
2021/04/30 02:15:35;;;;;;;26.30;14.23;;;5.20;99.90;;;;;;5035885;28;20496;-60
2021/04/30 02:18:01;;;;;;;20.08;14.80;;;5.20;99.90;;;;;;5035874;28;20053;-60
2021/04/30 02:20:27;;;;;;;18.25;14.48;;;5.20;99.90;;;;;;5034103;28;20021;-59
2021/04/30 02:22:53;;;;;;;23.05;15.07;;;5.20;99.90;;;;;;5035499;28;20076;-59
2021/04/30 02:25:20;;;;;;;26.25;15.65;;;5.20;99.90;;;;;;5034778;28;20029;-59
2021/04/30 02:27:47;;;;;;;22.27;14.70;;;5.20;99.90;;;;;;5034548;28;20102;-59
2021/04/30 02:30:15;;;;;;;21.38;14.57;;;5.20;99.90;;;;;;5034369;28;20538;-59
2021/04/30 02:32:41;;;;;;;21.95;14.63;;;5.20;99.90;;;;;;5034782;28;20039;-59
2021/04/30 02:35:12;;;;;;;21.50;15.02;;;5.30;99.90;;;;;;5034363;28;20035;-59
2021/04/30 02:37:38;;;;;;;19.58;14.77;;;5.30;99.90;;;;;;5035095;28;20021;-59
2021/04/30 02:40:06;;;;;;;20.05;14.48;;;5.30;99.90;;;;;;5033999;28;20017;-59
2021/04/30 02:42:31;;;;;;;22.40;14.25;;;5.30;99.90;;;;;;5034073;28;20022;-59
2021/04/30 02:45:00;;;;;;;22.35;14.57;;;5.20;99.90;;;;;;5033487;28;20041;-59
2021/04/30 02:47:30;;;;;;;21.58;14.40;;;5.20;99.90;;;;;;5033742;28;20258;-59
2021/04/30 02:49:56;;;;;;;23.02;15.13;;;5.20;99.90;;;;;;5032941;28;20060;-59
2021/04/30 02:52:22;;;;;;;20.42;14.25;;;5.10;99.90;;;;;;5033896;28;20548;-59
2021/04/30 02:54:48;;;;;;;22.17;14.10;;;5.00;99.90;;;;;;5032809;28;20026;-59
2021/04/30 02:57:14;;;;;;;22.10;14.95;;;4.90;99.90;;;;;;5034357;28;20022;-59
2021/04/30 02:59:40;;;;;;;20.67;15.45;;;4.70;99.90;;;;;;5033883;28;20167;-59
2021/04/30 03:02:06;;;;;;;29.67;16.70;;;4.70;99.90;;;;;;5032840;28;20378;-59
2021/04/30 03:04:31;;;;;;;22.10;16.15;;;4.60;99.90;;;;;;5034124;28;20040;-59
2021/04/30 03:06:57;;;;;;;24.60;15.68;;;4.60;99.90;;;;;;5034145;28;20080;-59
2021/04/30 03:09:23;;;;;;;23.30;17.30;;;4.40;99.90;;;;;;5033886;28;20053;-59
2021/04/30 03:11:48;;;;;;;20.52;16.33;;;4.20;99.90;;;;;;5031888;28;20039;-59
2021/04/30 03:14:14;;;;;;;25.08;15.85;;;4.10;99.90;;;;;;5034772;28;20101;-59
2021/04/30 03:16:40;;;;;;;24.30;15.15;;;4.20;99.90;;;;;;5033627;28;20060;-59
2021/04/30 03:19:05;;;;;;;21.10;15.38;;;4.10;99.90;;;;;;5033393;28;20064;-59
2021/04/30 03:21:31;;;;;;;24.23;16.60;;;4.10;99.90;;;;;;5033813;28;20021;-59
2021/04/30 03:23:57;;;;;;;22.65;16.00;;;4.00;99.90;;;;;;5032567;28;20026;-62
2021/04/30 03:26:22;;;;;;;21.02;15.93;;;3.80;99.90;;;;;;5033710;28;20025;-59
2021/04/30 03:28:48;;;;;;;22.15;15.93;;;3.80;99.90;;;;;;5033283;28;20037;-59
2021/04/30 03:31:14;;;;;;;23.27;17.23;;;3.80;99.90;;;;;;5033604;28;20091;-59
2021/04/30 03:33:40;;;;;;;23.88;17.38;;;3.90;99.90;;;;;;5033127;28;20033;-59
2021/04/30 03:36:06;;;;;;;25.77;18.48;;;3.90;99.90;;;;;;5033235;28;20170;-59
2021/04/30 03:38:33;;;;;;;27.10;20.23;;;4.00;99.90;;;;;;5032666;28;20033;-59
2021/04/30 03:40:58;;;;;;;28.50;19.27;;;4.10;99.90;;;;;;5033277;28;20025;-59
2021/04/30 03:43:24;;;;;;;28.65;18.77;;;4.30;99.90;;;;;;5031613;28;20026;-59
2021/04/30 03:45:51;;;;;;;28.13;19.23;;;4.40;99.90;;;;;;5033614;28;20033;-59
2021/04/30 03:48:21;;;;;;;31.52;18.88;;;4.50;99.90;;;;;;5033464;28;20021;-59
2021/04/30 03:50:47;;;;;;;35.83;22.15;;;4.60;99.90;;;;;;5032984;28;20033;-59
2021/04/30 03:53:13;;;;;;;28.30;19.90;;;4.70;99.90;;;;;;5033340;28;20111;-59
2021/04/30 03:55:39;;;;;;;28.08;19.70;;;4.70;99.90;;;;;;5032724;28;20025;-59
2021/04/30 03:58:05;;;;;;;27.90;19.30;;;4.80;99.90;;;;;;5033024;28;20087;-59
2021/04/30 04:00:31;;;;;;;30.55;20.40;;;4.80;99.90;;;;;;5032873;28;20025;-59
2021/04/30 04:02:56;;;;;;;28.65;20.25;;;4.80;99.90;;;;;;5033366;28;20022;-59
2021/04/30 04:05:22;;;;;;;31.92;21.30;;;4.80;99.90;;;;;;5032932;28;20040;-59
2021/04/30 04:07:48;;;;;;;30.23;20.77;;;4.90;99.90;;;;;;5031518;28;20037;-59
2021/04/30 04:10:13;;;;;;;31.13;20.75;;;4.90;99.90;;;;;;5032973;28;20033;-59
2021/04/30 04:12:40;;;;;;;31.50;21.42;;;5.00;99.90;;;;;;5032746;28;20156;-59
2021/04/30 04:15:07;;;;;;;31.10;22.73;;;5.00;99.90;;;;;;5032834;28;20021;-59
2021/04/30 04:17:34;;;;;;;36.63;21.00;;;5.00;99.90;;;;;;5033013;28;20048;-59
2021/04/30 04:20:00;;;;;;;32.90;22.55;;;4.90;99.90;;;;;;5032901;28;20029;-59
2021/04/30 04:22:26;;;;;;;36.13;22.00;;;4.80;99.90;;;;;;5031780;28;20026;-59
2021/04/30 04:24:55;;;;;;;33.55;21.42;;;4.80;99.90;;;;;;5033211;28;20120;-59
2021/04/30 04:27:20;;;;;;;31.05;21.30;;;4.80;99.90;;;;;;5033519;28;20021;-59
2021/04/30 04:29:46;;;;;;;34.17;21.50;;;4.80;99.90;;;;;;5031581;28;20029;-59
2021/04/30 04:32:15;;;;;;;30.58;21.52;;;4.80;99.90;;;;;;5032917;28;20022;-59
2021/04/30 04:34:41;;;;;;;28.35;20.75;;;4.80;99.90;;;;;;5032476;28;20053;-59
2021/04/30 04:37:07;;;;;;;27.20;19.80;;;4.50;99.90;;;;;;5033581;28;20068;-59
2021/04/30 04:39:33;;;;;;;26.70;19.83;;;4.10;99.90;;;;;;5033621;28;20021;-59
2021/04/30 04:42:00;;;;;;;30.50;19.90;;;3.80;99.90;;;;;;5033816;28;20078;-59
2021/04/30 04:44:27;;;;;;;26.33;19.85;;;3.80;99.90;;;;;;5033671;28;20473;-59
2021/04/30 04:46:52;;;;;;;33.33;19.83;;;3.80;99.90;;;;;;5032688;28;20052;-59
2021/04/30 04:49:18;;;;;;;26.98;18.90;;;3.80;99.90;;;;;;5034837;28;20029;-59
2021/04/30 04:51:43;;;;;;;26.35;20.60;;;3.90;99.90;;;;;;5036466;28;20026;-59
2021/04/30 04:54:09;;;;;;;30.88;19.73;;;3.90;99.90;;;;;;5036245;28;20580;-59
2021/04/30 04:56:35;;;;;;;33.38;20.38;;;3.90;99.90;;;;;;5035149;28;20120;-59
2021/04/30 04:59:00;;;;;;;29.55;20.60;;;3.70;99.90;;;;;;5035978;28;20081;-59
2021/04/30 05:01:26;;;;;;;26.20;19.23;;;3.70;99.90;;;;;;5036263;28;20041;-59
2021/04/30 05:03:52;;;;;;;28.40;20.17;;;3.70;99.90;;;;;;5036738;28;20113;-59
2021/04/30 05:06:18;;;;;;;31.35;21.02;;;3.70;99.90;;;;;;5036618;28;20071;-59
2021/04/30 05:08:46;;;;;;;29.85;21.63;;;3.70;99.90;;;;;;5037035;28;20037;-58
2021/04/30 05:11:12;;;;;;;28.67;19.33;;;3.70;99.90;;;;;;5035468;28;20033;-59
2021/04/30 05:13:38;;;;;;;28.33;20.58;;;3.70;99.90;;;;;;5036690;28;20026;-59
2021/04/30 05:16:04;;;;;;;32.28;21.02;;;3.60;99.90;;;;;;5036993;28;20082;-59
2021/04/30 05:18:33;;;;;;;29.05;20.60;;;3.70;99.90;;;;;;5036982;28;20022;-59
2021/04/30 05:20:59;;;;;;;28.40;20.35;;;3.80;99.90;;;;;;5035609;28;20065;-59
2021/04/30 05:23:25;;;;;;;27.17;19.55;;;3.90;99.90;;;;;;5036304;28;20358;-59
2021/04/30 05:25:55;;;;;;;26.75;20.25;;;4.00;99.90;;;;;;5035669;28;20032;-60
2021/04/30 05:28:21;;;;;;;31.90;20.55;;;4.10;99.90;;;;;;5034773;28;20087;-59
2021/04/30 05:30:47;;;;;;;25.08;19.83;;;4.20;99.90;;;;;;5035627;28;20037;-59
2021/04/30 05:33:12;;;;;;;33.22;21.23;;;4.50;99.90;;;;;;5036117;28;20021;-59
2021/04/30 05:35:38;;;;;;;28.38;19.17;;;4.70;99.90;;;;;;5036432;28;20108;-59
2021/04/30 05:38:06;;;;;;;29.10;18.42;;;4.80;99.90;;;;;;5034149;28;20044;-59
2021/04/30 05:40:33;;;;;;;31.73;19.17;;;4.90;99.90;;;;;;5019505;28;20474;-59
2021/04/30 05:42:59;;;;;;;27.90;18.63;;;4.70;99.90;;;;;;5035012;28;20029;-59
2021/04/30 05:45:25;;;;;;;30.25;19.67;;;4.80;99.90;;;;;;5034054;28;20288;-59
2021/04/30 05:47:51;;;;;;;28.48;19.05;;;5.00;99.90;;;;;;5034537;28;20029;-59
2021/04/30 05:50:17;;;;;;;26.25;18.45;;;5.10;99.90;;;;;;5019717;28;20033;-59
2021/04/30 05:52:42;;;;;;;23.83;17.80;;;5.20;99.90;;;;;;5017288;28;20040;-62
2021/04/30 05:55:09;;;;;;;29.85;19.38;;;5.50;99.90;;;;;;5030986;28;20033;-59
2021/04/30 05:57:35;;;;;;;37.65;18.58;;;5.90;99.90;;;;;;5025616;28;20029;-60
2021/04/30 06:00:01;;;;;;;30.58;17.85;;;6.30;99.90;;;;;;5026729;28;20085;-59
2021/04/30 06:02:26;;;;;;;27.70;17.08;;;6.70;99.90;;;;;;5028940;28;20053;-59
2021/04/30 06:04:53;;;;;;;30.77;17.33;;;6.90;99.90;;;;;;5021968;28;20068;-59
2021/04/30 06:07:19;;;;;;;26.00;16.55;;;7.00;99.90;;;;;;5028836;28;20072;-59
2021/04/30 06:09:44;;;;;;;29.20;15.75;;;7.20;99.90;;;;;;5026942;28;20108;-58
2021/04/30 06:12:10;;;;;;;28.85;16.02;;;7.30;99.90;;;;;;5016444;28;20057;-59
2021/04/30 06:14:36;;;;;;;23.75;15.80;;;7.40;99.90;;;;;;5018665;28;20029;-59
2021/04/30 06:17:01;;;;;;;36.38;16.25;;;7.50;99.90;;;;;;5020188;28;20060;-59
2021/04/30 06:19:27;;;;;;;20.35;15.77;;;7.60;99.90;;;;;;5019430;28;20022;-59
2021/04/30 06:21:56;;;;;;;38.28;15.98;;;7.80;99.90;;;;;;5021839;28;20472;-59
2021/04/30 06:24:23;;;;;;;38.33;16.23;;;7.90;99.90;;;;;;5023274;28;20160;-58
2021/04/30 06:26:49;;;;;;;27.45;14.50;;;8.10;99.90;;;;;;5026420;28;20773;-60
2021/04/30 06:29:14;;;;;;;23.88;15.77;;;8.20;99.90;;;;;;5020797;28;20119;-60
2021/04/30 06:31:40;;;;;;;24.08;13.98;;;8.40;99.90;;;;;;5024565;28;20479;-60
2021/04/30 06:34:07;;;;;;;23.38;14.73;;;8.50;99.90;;;;;;5013546;28;20063;-59
2021/04/30 06:36:34;;;;;;;29.92;14.43;;;8.50;99.90;;;;;;5020711;28;20032;-60
2021/04/30 06:39:00;;;;;;;25.85;15.90;;;8.30;99.90;;;;;;5021000;28;20109;-59
2021/04/30 06:41:26;;;;;;;21.17;14.98;;;8.40;99.90;;;;;;5011294;28;20030;-59
2021/04/30 06:43:51;;;;;;;23.05;14.55;;;8.50;99.90;;;;;;5013407;28;20034;-59
2021/04/30 06:46:19;;;;;;;18.50;14.15;;;8.40;99.90;;;;;;5010075;28;20029;-59
2021/04/30 06:48:45;;;;;;;20.98;14.85;;;8.40;99.90;;;;;;5016442;28;20519;-59
2021/04/30 06:51:11;;;;;;;20.30;14.85;;;8.50;99.90;;;;;;5017162;28;20091;-59
2021/04/30 06:53:36;;;;;;;21.45;14.23;;;8.80;99.90;;;;;;5021713;28;20030;-59
2021/04/30 06:56:03;;;;;;;23.85;14.52;;;9.00;99.90;;;;;;5019774;28;20037;-59
2021/04/30 06:58:29;;;;;;;18.52;13.27;;;9.00;99.90;;;;;;5015049;28;20048;-59
2021/04/30 07:00:54;;;;;;;23.45;14.05;;;9.10;99.90;;;;;;5020354;28;20041;-59
2021/04/30 07:03:20;;;;;;;18.73;13.18;;;9.20;99.90;;;;;;5020591;28;20071;-59
2021/04/30 07:05:46;;;;;;;18.75;13.13;;;9.40;99.90;;;;;;5016198;28;20040;-59
2021/04/30 07:08:12;;;;;;;18.23;11.98;;;10.20;99.90;;;;;;5018810;28;20029;-60
2021/04/30 07:10:37;;;;;;;21.52;11.55;;;11.50;99.90;;;;;;5005396;28;20060;-60
2021/04/30 07:13:16;;;;;;;21.05;11.10;;;12.60;99.90;;;;;;5014380;28;20080;-60
2021/04/30 07:15:42;;;;;;;20.48;10.45;;;13.10;99.90;;;;;;5014397;28;20063;-61
2021/04/30 07:18:07;;;;;;;22.00;10.60;;;14.20;99.90;;;;;;5014498;28;20033;-60
2021/04/30 07:20:36;;;;;;;24.75;10.05;;;14.90;99.90;;;;;;5016439;28;20033;-61
2021/04/30 07:23:03;;;;;;;14.73;9.10;;;15.30;99.90;;;;;;5017125;28;20029;-62
2021/04/30 07:25:29;;;;;;;12.35;8.63;;;15.20;99.90;;;;;;5018111;28;20706;-61
2021/04/30 07:27:58;;;;;;;16.88;8.82;;;14.70;99.90;;;;;;5012919;28;20060;-61
2021/04/30 07:30:24;;;;;;;13.43;8.90;;;14.70;99.60;;;;;;5012953;28;20041;-61
2021/04/30 07:32:50;;;;;;;17.42;8.93;;;15.00;99.50;;;;;;5016205;28;20038;-61
2021/04/30 07:35:16;;;;;;;16.90;8.88;;;15.50;97.40;;;;;;5012395;28;20040;-61
2021/04/30 07:37:41;;;;;;;14.35;8.93;;;16.20;95.60;;;;;;5014630;28;20048;-61
2021/04/30 07:40:08;;;;;;;14.77;9.77;;;16.50;93.60;;;;;;5017741;28;20044;-61
2021/04/30 07:42:35;;;;;;;14.85;8.50;;;16.50;93.60;;;;;;5015423;28;20425;-61
2021/04/30 07:45:01;;;;;;;23.23;8.93;;;16.30;93.50;;;;;;5007798;28;20908;-61
2021/04/30 07:47:26;;;;;;;15.25;7.90;;;15.90;93.20;;;;;;5015648;28;20119;-61
2021/04/30 07:49:52;;;;;;;15.30;8.10;;;15.60;93.10;;;;;;5012403;28;20041;-61
2021/04/30 07:52:18;;;;;;;22.45;8.30;;;15.80;92.30;;;;;;5015183;28;20033;-61
2021/04/30 07:54:43;;;;;;;13.95;8.90;;;16.20;90.90;;;;;;5015548;28;20037;-61
2021/04/30 07:57:09;;;;;;;14.00;8.90;;;15.90;91.30;;;;;;5013245;28;20075;-61
2021/04/30 07:59:35;;;;;;;13.95;8.80;;;16.10;90.90;;;;;;5014335;28;20835;-61
2021/04/30 08:02:02;;;;;;;15.18;9.45;;;16.00;90.40;;;;;;5019356;28;20029;-62
2021/04/30 08:04:28;;;;;;;22.08;10.00;;;15.10;91.80;;;;;;5014163;28;20767;-61
2021/04/30 08:06:54;;;;;;;17.42;9.57;;;14.60;93.50;;;;;;5016552;28;20034;-62
2021/04/30 08:09:20;;;;;;;15.80;8.95;;;15.00;93.90;;;;;;5014448;28;20112;-61
2021/04/30 08:11:45;;;;;;;14.88;9.48;;;14.80;92.40;;;;;;5016475;28;20042;-61
2021/04/30 08:14:11;;;;;;;25.77;10.07;;;14.10;93.80;;;;;;5017516;28;20034;-61
2021/04/30 08:16:37;;;;;;;19.15;10.27;;;13.60;96.80;;;;;;4998839;28;20119;-61
2021/04/30 08:19:04;;;;;;;19.35;8.73;;;14.80;94.40;;;;;;5013869;28;20453;-60
2021/04/30 08:21:30;;;;;;;27.48;8.90;;;16.00;91.60;;;;;;5016181;28;20083;-61
2021/04/30 08:23:56;;;;;;;20.23;8.20;;;16.40;89.50;;;;;;5019590;28;20037;-61
2021/04/30 08:26:22;;;;;;;25.55;8.10;;;16.70;87.40;;;;;;5021770;28;20034;-62
2021/04/30 08:28:49;;;;;;;18.70;8.60;;;17.40;84.20;;;;;;5021466;28;20030;-62
2021/04/30 08:31:14;;;;;;;15.18;7.75;;;18.00;79.60;;;;;;5017360;28;20076;-62
2021/04/30 08:33:40;;;;;;;15.02;7.28;;;18.60;75.30;;;;;;5014883;28;20492;-62
2021/04/30 08:36:06;;;;;;;14.80;7.43;;;18.50;73.90;;;;;;5017042;28;20079;-62
2021/04/30 08:38:32;;;;;;;15.88;7.85;;;18.90;72.70;;;;;;5017271;28;20053;-62
2021/04/30 08:40:59;;;;;;;13.43;7.57;;;18.40;73.50;;;;;;5020080;28;20024;-62
2021/04/30 08:43:24;;;;;;;13.55;8.18;;;17.30;72.60;;;;;;5017825;28;20057;-62
2021/04/30 08:45:54;;;;;;;14.98;8.57;;;15.60;79.00;;;;;;5024299;28;20508;-61
2021/04/30 08:48:22;;;;;;;18.25;8.70;;;14.20;83.90;;;;;;5021463;28;20037;-61
2021/04/30 08:50:47;;;;;;;15.88;9.60;;;13.60;88.50;;;;;;5018973;28;20501;-61
2021/04/30 08:53:13;;;;;;;16.45;9.80;;;13.30;90.90;;;;;;5017578;28;20033;-61
2021/04/30 08:55:40;;;;;;;14.70;9.27;;;12.90;92.40;;;;;;5015894;28;20029;-61
2021/04/30 08:58:08;;;;;;;14.30;8.02;;;13.10;92.20;;;;;;5015614;28;20120;-61
2021/04/30 09:00:34;;;;;;;23.85;9.57;;;13.80;90.40;;;;;;5020118;28;20129;-61
2021/04/30 09:03:00;;;;;;;15.77;7.82;;;15.30;86.50;;;;;;5018690;28;20033;-61
2021/04/30 09:05:30;;;;;;;12.18;7.63;;;16.50;80.30;;;;;;5019153;28;20029;-61
2021/04/30 09:07:58;;;;;;;11.98;7.57;;;17.40;76.40;;;;;;5017801;28;20040;-61
2021/04/30 09:10:25;;;;;;;14.45;7.28;;;18.50;73.10;;;;;;5026711;28;20060;-61
2021/04/30 09:13:06;;;;;;;11.00;7.85;;;17.50;73.30;;;;;;5020446;28;20474;-61
2021/04/30 09:15:32;;;;;;;12.10;7.80;;;16.80;78.10;;;;;;5022367;28;20026;-61
2021/04/30 09:18:19;;;;;;;19.80;9.23;;;16.50;74.50;;;;;;5024884;28;20522;-61
2021/04/30 09:20:47;;;;;;;16.55;8.93;;;15.50;76.80;;;;;;5028768;28;20080;-61
2021/04/30 09:23:32;;;;;;;12.38;8.40;;;14.90;78.40;;;;;;5023832;28;20038;-61
2021/04/30 09:25:58;;;;;;;11.95;8.68;;;14.60;81.10;;;;;;5015717;28;20029;-61
2021/04/30 09:28:24;;;;;;;28.90;10.43;;;14.50;82.40;;;;;;5014020;28;20076;-61
2021/04/30 09:30:51;;;;;;;45.95;11.40;;;14.80;80.70;;;;;;5029834;28;20512;-61
2021/04/30 09:33:23;;;;;;;23.00;9.38;;;15.00;79.60;;;;;;5022701;28;20076;-61
2021/04/30 09:36:01;;;;;;;17.08;9.27;;;15.90;76.60;;;;;;5015502;28;20492;-62
2021/04/30 09:38:34;;;;;;;41.10;11.60;;;15.90;75.30;;;;;;5021506;28;20540;-62
2021/04/30 09:41:15;;;;;;;22.65;10.13;;;15.80;77.30;;;;;;5012195;28;20470;-62
2021/04/30 09:43:42;;;;;;;15.95;9.52;;;15.90;78.90;;;;;;5016632;28;20018;-61
2021/04/30 09:46:33;;;;;;;24.98;10.05;;;15.90;78.70;;;;;;5018889;28;20036;-62
2021/04/30 09:49:14;;;;;;;25.15;9.90;;;15.20;81.10;;;;;;5024780;28;20413;-62
2021/04/30 09:51:51;;;;;;;36.92;11.88;;;15.00;82.40;;;;;;5003123;28;20025;-61
2021/04/30 09:54:28;;;;;;;20.65;9.70;;;14.50;79.90;;;;;;5019838;28;20037;-61
2021/04/30 09:57:05;;;;;;;12.68;9.00;;;14.20;81.30;;;;;;5025958;28;20076;-61
2021/04/30 09:59:31;;;;;;;17.80;9.55;;;13.90;83.60;;;;;;5022211;28;20038;-61
2021/04/30 10:02:17;;;;;;;27.20;9.68;;;13.70;85.10;;;;;;5009580;28;20069;-61
2021/04/30 10:04:44;;;;;;;14.82;9.18;;;13.20;86.60;;;;;;5030715;28;20141;-61
2021/04/30 10:07:13;;;;;;;15.35;9.38;;;13.40;87.20;;;;;;5019709;28;20053;-61
2021/04/30 10:09:40;;;;;;;16.30;10.73;;;13.50;87.50;;;;;;5021969;28;20061;-61
2021/04/30 10:12:27;;;;;;;21.25;11.00;;;13.50;88.20;;;;;;5009499;28;20068;-61
2021/04/30 10:14:53;;;;;;;18.95;10.30;;;13.80;88.30;;;;;;5022149;28;20079;-61
2021/04/30 10:17:19;;;;;;;13.68;9.13;;;14.30;87.10;;;;;;5017363;28;21399;-61
2021/04/30 10:19:46;;;;;;;13.63;8.68;;;14.80;83.20;;;;;;5014055;28;20419;-61
2021/04/30 10:22:18;;;;;;;14.52;8.93;;;15.60;79.90;;;;;;5014891;28;20381;-61
2021/04/30 10:24:47;;;;;;;12.48;7.28;;;16.70;76.80;;;;;;5015087;28;20032;-61
2021/04/30 10:27:25;;;;;;;12.77;7.50;;;18.30;66.70;;;;;;5018661;28;20450;-61
2021/04/30 10:30:06;;;;;;;18.10;8.10;;;18.60;62.20;;;;;;5014635;28;20604;-61
2021/04/30 10:32:47;;;;;;;11.32;8.02;;;18.20;61.60;;;;;;5012957;28;20029;-61
2021/04/30 10:35:15;;;;;;;16.80;8.77;;;17.30;63.90;;;;;;5019955;28;20025;-61
2021/04/30 10:37:45;;;;;;;12.90;8.70;;;16.50;67.70;;;;;;5014620;28;20024;-60
2021/04/30 10:40:13;;;;;;;19.00;8.82;;;16.10;71.80;;;;;;5017153;28;20028;-62
2021/04/30 10:42:44;;;;;;;19.70;9.27;;;15.90;72.90;;;;;;5021557;28;20093;-61
2021/04/30 10:45:20;;;;;;;25.60;9.50;;;15.70;72.10;;;;;;5019450;28;21757;-62
2021/04/30 10:48:07;;;;;;;27.70;10.05;;;15.40;72.40;;;;;;5018677;28;20449;-61
2021/04/30 10:50:34;;;;;;;22.63;10.25;;;14.90;74.40;;;;;;5018320;28;20060;-62
2021/04/30 10:53:32;;;;;;;24.55;10.13;;;14.30;78.40;;;;;;5018150;28;20537;-61
2021/04/30 10:55:57;;;;;;;18.00;9.95;;;14.30;78.10;;;;;;5033177;28;20033;-60
2021/04/30 10:58:34;;;;;;;18.48;9.60;;;14.50;77.20;;;;;;5016097;28;20045;-60
2021/04/30 11:01:24;;;;;;;16.40;8.48;;;15.00;78.90;;;;;;5011843;28;20022;-60
2021/04/30 11:04:08;;;;;;;14.70;8.77;;;16.20;72.30;;;;;;5016099;28;20026;-61
2021/04/30 11:06:42;;;;;;;15.95;9.02;;;16.40;71.00;;;;;;5015063;28;20048;-61
2021/04/30 11:09:18;;;;;;;13.80;8.73;;;15.70;71.30;;;;;;5012259;28;20053;-62
2021/04/30 11:11:45;;;;;;;45.75;12.15;;;15.60;71.10;;;;;;5026944;28;20030;-61
2021/04/30 11:14:58;;;;;;;9.80;8.52;;;15.50;72.40;;;;;;5014513;28;20490;-61
2021/04/30 11:17:47;;;;;;;13.90;8.95;;;14.80;73.20;;;;;;5022231;28;20042;-61
2021/04/30 11:20:19;;;;;;;14.75;9.40;;;14.50;74.20;;;;;;5012156;28;20038;-61
2021/04/30 11:23:27;;;;;;;25.65;9.30;;;14.20;74.20;;;;;;5013457;28;20058;-61
2021/04/30 11:25:58;;;;;;;13.98;8.60;;;14.20;75.20;;;;;;5017668;28;20069;-61
2021/04/30 11:28:31;;;;;;;22.20;9.38;;;14.00;75.60;;;;;;5018270;28;20037;-60
2021/04/30 11:31:04;;;;;;;16.70;8.70;;;13.80;76.90;;;;;;5016893;28;20064;-61
2021/04/30 11:33:31;;;;;;;11.15;7.50;;;13.50;79.40;;;;;;5026857;28;20039;-60
2021/04/30 11:35:58;;;;;;;12.93;6.35;;;13.40;81.70;;;;;;5016628;28;20482;-60
2021/04/30 11:38:35;;;;;;;11.32;6.55;;;13.20;83.10;;;;;;5021066;28;20041;-61
2021/04/30 11:41:01;;;;;;;13.52;6.20;;;13.20;82.60;;;;;;5013263;28;20483;-60
2021/04/30 11:43:27;;;;;;;29.08;8.13;;;13.10;83.30;;;;;;5014165;28;20030;-60
2021/04/30 11:45:54;;;;;;;24.92;7.30;;;13.00;83.40;;;;;;5017886;28;20692;-60
2021/04/30 11:48:24;;;;;;;28.00;8.38;;;12.80;84.70;;;;;;5011665;28;20700;-61
2021/04/30 11:51:07;;;;;;;12.52;6.95;;;12.60;86.80;;;;;;5012400;28;20117;-59
2021/04/30 11:53:34;;;;;;;9.50;6.53;;;12.50;88.30;;;;;;5000405;28;20573;-61
2021/04/30 11:56:00;;;;;;;11.57;6.97;;;12.20;90.30;;;;;;5011730;28;20411;-60
2021/04/30 11:58:36;;;;;;;14.32;7.03;;;12.10;90.80;;;;;;5026272;28;20436;-61
2021/04/30 12:01:06;;;;;;;15.73;6.85;;;12.20;91.00;;;;;;5011959;28;20049;-61
2021/04/30 12:03:48;;;;;;;16.92;7.78;;;12.40;91.50;;;;;;5016502;28;20162;-60
2021/04/30 12:06:16;;;;;;;16.73;8.30;;;12.50;91.80;;;;;;5014003;28;20402;-61
2021/04/30 12:08:43;;;;;;;15.05;7.70;;;12.50;92.20;;;;;;5030653;28;20042;-61
2021/04/30 12:11:10;;;;;;;15.23;7.90;;;12.50;92.60;;;;;;5014935;28;20821;-60
2021/04/30 12:13:39;;;;;;;32.42;8.90;;;12.50;92.70;;;;;;5017665;28;20112;-60
2021/04/30 12:16:12;;;;;;;17.27;7.68;;;12.40;92.50;;;;;;5015051;28;20025;-61
2021/04/30 12:18:38;;;;;;;12.38;7.20;;;12.40;92.40;;;;;;5020033;28;20079;-60
2021/04/30 12:21:04;;;;;;;11.82;7.00;;;12.30;92.20;;;;;;5016344;28;20034;-61
2021/04/30 12:23:29;;;;;;;15.52;7.47;;;12.40;92.30;;;;;;5032168;28;20541;-61
2021/04/30 12:25:55;;;;;;;18.88;8.02;;;12.40;92.40;;;;;;5018638;28;20117;-61
2021/04/30 12:28:29;;;;;;;15.27;7.00;;;12.20;92.10;;;;;;5009278;28;20144;-60
2021/04/30 12:31:12;;;;;;;15.50;7.15;;;12.20;92.50;;;;;;5016297;28;20490;-61
2021/04/30 12:33:51;;;;;;;15.10;7.50;;;12.20;92.80;;;;;;5030969;28;20038;-61
2021/04/30 12:36:22;;;;;;;19.23;7.88;;;12.10;93.00;;;;;;5014397;28;20113;-60
2021/04/30 12:38:53;;;;;;;15.13;7.10;;;12.20;93.30;;;;;;5018823;28;20029;-60
2021/04/30 12:41:26;;;;;;;15.10;7.53;;;12.40;92.90;;;;;;5017529;28;20053;-60
2021/04/30 12:43:57;;;;;;;12.70;6.93;;;12.50;92.60;;;;;;5013104;28;20034;-60